createdAt,value
2019-01-26T00:00:15.987Z,28.17
2019-01-26T00:02:45.269Z,28.60
2019-01-26T00:05:19.155Z,26.67
2019-01-26T00:07:48.489Z,27.67
2019-01-26T00:10:17.933Z,28.00
2019-01-26T00:12:47.151Z,27.50
2019-01-26T00:15:16.434Z,28.10
2019-01-26T00:17:45.851Z,28.47
2019-01-26T00:20:18.288Z,28.73
2019-01-26T00:22:48.022Z,28.20
2019-01-26T00:25:17.239Z,27.13
2019-01-26T00:27:46.254Z,28.33
2019-01-26T00:30:15.444Z,28.33
2019-01-26T00:32:44.510Z,28.10
2019-01-26T00:35:13.865Z,29.47
2019-01-26T00:37:43.062Z,28.73
2019-01-26T00:40:12.270Z,28.47
2019-01-26T00:42:41.336Z,29.43
2019-01-26T00:45:10.506Z,27.00
2019-01-26T00:47:39.594Z,27.53
2019-01-26T00:50:09.096Z,31.10
2019-01-26T00:52:38.159Z,28.03
2019-01-26T00:55:07.164Z,29.73
2019-01-26T00:57:36.324Z,29.57
2019-01-26T01:00:07.536Z,29.37
2019-01-26T01:02:36.563Z,28.37
2019-01-26T01:05:06.268Z,28.13
2019-01-26T01:07:35.248Z,30.30
2019-01-26T01:10:05.562Z,29.93
2019-01-26T01:12:34.962Z,29.00
2019-01-26T01:15:05.120Z,29.23
2019-01-26T01:17:34.327Z,27.67
2019-01-26T01:20:05.769Z,29.47
2019-01-26T01:22:36.492Z,29.03
2019-01-26T01:25:07.025Z,30.17
2019-01-26T01:27:36.027Z,28.67
2019-01-26T01:30:06.676Z,27.70
2019-01-26T01:32:36.568Z,27.20
2019-01-26T01:35:06.803Z,29.30
2019-01-26T01:37:35.945Z,26.87
2019-01-26T01:40:06.160Z,28.73
2019-01-26T01:42:36.183Z,26.77
2019-01-26T01:45:07.621Z,29.57
2019-01-26T01:47:36.802Z,27.97
2019-01-26T01:50:06.281Z,29.73
2019-01-26T01:52:35.430Z,29.23
2019-01-26T01:55:04.384Z,27.77
2019-01-26T01:57:33.534Z,29.67
2019-01-26T02:00:02.574Z,28.23
2019-01-26T02:02:31.608Z,27.77
2019-01-26T02:05:01.679Z,27.83
2019-01-26T02:07:30.707Z,26.50
2019-01-26T02:09:59.834Z,26.67
2019-01-26T02:12:28.860Z,25.50
2019-01-26T02:14:58.134Z,26.30
2019-01-26T02:17:27.424Z,27.13
2019-01-26T02:19:56.526Z,26.33
2019-01-26T02:22:25.610Z,26.63
2019-01-26T02:24:54.808Z,25.50
2019-01-26T02:27:23.846Z,28.43
2019-01-26T02:29:53.066Z,29.50
2019-01-26T02:32:22.095Z,29.10
2019-01-26T02:34:51.080Z,28.63
2019-01-26T02:37:20.172Z,28.57
2019-01-26T02:39:49.136Z,28.80
2019-01-26T02:42:18.140Z,30.27
2019-01-26T02:44:47.160Z,27.70
2019-01-26T02:47:16.279Z,28.97
2019-01-26T02:49:45.244Z,27.50
2019-01-26T02:52:14.293Z,28.53
2019-01-26T02:54:43.408Z,28.10
2019-01-26T02:57:13.217Z,27.17
2019-01-26T02:59:42.210Z,27.30
2019-01-26T03:02:11.262Z,29.97
2019-01-26T03:04:40.275Z,29.67
2019-01-26T03:07:09.882Z,28.73
2019-01-26T03:09:38.905Z,27.53
2019-01-26T03:12:07.927Z,28.07
2019-01-26T03:14:37.204Z,28.80
2019-01-26T03:17:06.561Z,28.50
2019-01-26T03:19:35.268Z,30.07
2019-01-26T03:22:04.310Z,27.87
2019-01-26T03:24:33.449Z,30.67
2019-01-26T03:27:02.491Z,28.93
2019-01-26T03:29:31.552Z,28.60
2019-01-26T03:32:00.783Z,30.07
2019-01-26T03:34:29.754Z,30.23
2019-01-26T03:37:00.024Z,30.20
2019-01-26T03:39:29.042Z,28.63
2019-01-26T03:41:58.072Z,29.70
2019-01-26T03:44:27.118Z,29.93
2019-01-26T03:46:56.093Z,28.33
2019-01-26T03:49:25.263Z,29.77
2019-01-26T03:51:54.337Z,31.13
2019-01-26T03:54:23.646Z,30.77
2019-01-26T03:56:52.819Z,29.10
2019-01-26T03:59:22.620Z,30.33
2019-01-26T04:01:52.116Z,30.43
2019-01-26T04:04:21.153Z,29.47
2019-01-26T04:06:50.228Z,30.47
2019-01-26T04:09:19.293Z,31.33
2019-01-26T04:11:48.461Z,29.40
2019-01-26T04:14:18.906Z,30.43
2019-01-26T04:16:46.676Z,30.67
2019-01-26T04:19:15.727Z,30.00
2019-01-26T04:21:44.821Z,31.03
2019-01-26T04:24:13.887Z,30.73
2019-01-26T04:26:42.979Z,30.47
2019-01-26T04:29:12.295Z,28.80
2019-01-26T04:31:41.493Z,29.93
2019-01-26T04:34:10.602Z,30.53
2019-01-26T04:36:39.649Z,29.53
2019-01-26T04:39:08.829Z,30.07
2019-01-26T04:41:37.887Z,29.57
2019-01-26T04:44:07.023Z,28.70
2019-01-26T04:46:36.381Z,29.13
2019-01-26T04:49:05.653Z,30.57
2019-01-26T04:51:34.697Z,30.27
2019-01-26T04:54:03.696Z,29.47
2019-01-26T04:56:32.707Z,28.97
2019-01-26T04:59:02.165Z,28.20
2019-01-26T05:01:33.621Z,30.17
2019-01-26T05:04:02.793Z,29.70
2019-01-26T05:06:31.859Z,31.60
2019-01-26T05:09:00.933Z,30.13
2019-01-26T05:11:30.352Z,31.27
2019-01-26T05:13:59.365Z,31.07
2019-01-26T05:16:31.376Z,31.03
2019-01-26T05:19:00.399Z,31.83
2019-01-26T05:21:29.685Z,31.77
2019-01-26T05:24:01.411Z,30.87
2019-01-26T05:29:32.159Z,31.20
2019-01-26T05:32:10.763Z,30.83
2019-01-26T05:34:49.826Z,31.47
2019-01-26T05:37:20.749Z,29.70
2019-01-26T05:39:50.213Z,32.53
2019-01-26T05:42:19.225Z,30.27
2019-01-26T05:44:48.217Z,31.10
2019-01-26T05:47:18.117Z,30.70
2019-01-26T05:49:47.201Z,29.37
2019-01-26T05:52:16.255Z,31.83
2019-01-26T05:54:45.305Z,30.97
2019-01-26T05:57:14.420Z,29.77
2019-01-26T05:59:43.388Z,30.23
2019-01-26T06:02:12.923Z,31.30
2019-01-26T06:04:42.505Z,30.97
2019-01-26T06:07:12.745Z,30.60
2019-01-26T06:09:41.703Z,30.03
2019-01-26T06:12:12.354Z,31.53
2019-01-26T06:14:42.156Z,30.23
2019-01-26T06:17:12.181Z,31.70
2019-01-26T06:19:41.265Z,31.50
2019-01-26T06:22:10.366Z,31.47
2019-01-26T06:24:40.855Z,31.93
2019-01-26T06:27:10.982Z,33.33
2019-01-26T06:29:40.135Z,30.23
2019-01-26T06:32:09.222Z,32.80
2019-01-26T06:34:38.283Z,31.10
2019-01-26T06:37:07.255Z,30.10
2019-01-26T06:39:36.391Z,30.57
2019-01-26T06:42:05.463Z,31.27
2019-01-26T06:44:34.517Z,31.47
2019-01-26T06:47:04.417Z,31.10
2019-01-26T06:49:33.611Z,30.17
2019-01-26T06:52:03.951Z,30.70
2019-01-26T06:54:33.091Z,31.73
2019-01-26T06:57:02.175Z,31.50
2019-01-26T06:59:32.785Z,32.57
2019-01-26T07:02:01.869Z,32.10
2019-01-26T07:05:36.904Z,31.93
2019-01-26T07:08:07.157Z,31.80
2019-01-26T07:10:39.537Z,31.73
2019-01-26T07:13:09.104Z,31.53
2019-01-26T07:15:38.302Z,30.60
2019-01-26T07:18:09.663Z,29.93
2019-01-26T07:20:37.998Z,31.87
2019-01-26T07:23:09.193Z,29.63
2019-01-26T07:25:38.394Z,30.67
2019-01-26T07:28:07.591Z,30.07
2019-01-26T07:33:14.297Z,30.20
2019-01-26T07:35:45.025Z,31.13
2019-01-26T07:38:15.655Z,30.63
2019-01-26T07:40:44.769Z,31.33
2019-01-26T07:43:14.145Z,30.80
2019-01-26T07:45:44.581Z,30.67
2019-01-26T07:48:16.934Z,30.07
2019-01-26T07:50:45.721Z,29.47
2019-01-26T07:53:15.429Z,28.77
2019-01-26T07:55:47.611Z,28.90
2019-01-26T07:58:18.055Z,28.13
2019-01-26T08:00:57.160Z,28.53
2019-01-26T08:03:29.777Z,29.57
2019-01-26T08:06:02.437Z,32.10
2019-01-26T08:08:32.510Z,30.83
2019-01-26T08:11:02.009Z,30.00
2019-01-26T08:13:34.369Z,30.87
2019-01-26T08:16:04.135Z,32.53
2019-01-26T08:18:37.087Z,32.27
2019-01-26T08:21:08.055Z,29.40
2019-01-26T08:23:37.672Z,29.63
2019-01-26T08:26:11.603Z,32.47
2019-01-26T08:28:41.280Z,34.83
2019-01-26T08:31:11.796Z,30.43
2019-01-26T08:33:44.777Z,29.60
2019-01-26T08:36:14.415Z,32.53
2019-01-26T08:38:43.533Z,30.83
2019-01-26T08:41:13.725Z,31.50
2019-01-26T08:43:43.895Z,30.73
2019-01-26T08:46:14.788Z,29.07
2019-01-26T08:48:46.335Z,29.43
2019-01-26T08:51:15.838Z,29.00
2019-01-26T08:53:51.310Z,32.20
2019-01-26T08:56:20.575Z,31.23
2019-01-26T08:58:49.738Z,30.93
2019-01-26T09:01:19.803Z,30.73
2019-01-26T09:03:57.070Z,28.83
2019-01-26T09:06:32.942Z,27.10
2019-01-26T09:09:08.568Z,28.90
2019-01-26T09:11:38.214Z,28.17
2019-01-26T09:14:07.305Z,30.13
2019-01-26T09:16:36.575Z,30.57
2019-01-26T09:19:09.969Z,32.47
2019-01-26T09:21:39.049Z,29.10
2019-01-26T09:24:09.269Z,29.07
2019-01-26T09:26:41.171Z,27.00
2019-01-26T09:29:13.455Z,39.63
2019-01-26T09:31:42.520Z,29.67
2019-01-26T09:34:11.645Z,28.17
2019-01-26T09:36:41.531Z,25.83
2019-01-26T09:39:11.727Z,25.20
2019-01-26T09:41:47.209Z,26.07
2019-01-26T09:44:16.338Z,25.57
2019-01-26T09:46:46.151Z,22.97
2019-01-26T09:49:15.361Z,22.20
2019-01-26T09:51:45.147Z,23.60
2019-01-26T09:54:14.951Z,23.70
2019-01-26T09:56:43.989Z,21.77
2019-01-26T09:59:15.875Z,22.07
2019-01-26T10:01:48.239Z,21.53
2019-01-26T10:04:17.346Z,20.67
2019-01-26T10:06:48.269Z,22.83
2019-01-26T10:09:17.349Z,19.33
2019-01-26T10:11:46.565Z,18.63
2019-01-26T10:14:15.817Z,17.03
2019-01-26T10:16:45.885Z,16.27
2019-01-26T10:19:16.153Z,16.80
2019-01-26T10:21:45.511Z,17.00
2019-01-26T10:24:15.977Z,16.13
2019-01-26T10:26:45.300Z,15.20
2019-01-26T10:29:14.405Z,16.03
2019-01-26T10:31:44.267Z,15.50
2019-01-26T10:34:13.809Z,16.13
2019-01-26T10:36:51.237Z,16.87
2019-01-26T10:39:21.212Z,16.13
2019-01-26T10:41:54.805Z,17.20
2019-01-26T10:44:28.700Z,15.70
2019-01-26T10:46:58.710Z,16.80
2019-01-26T10:49:28.062Z,15.63
2019-01-26T10:54:41.198Z,16.70
2019-01-26T10:57:10.568Z,16.10
2019-01-26T10:59:40.297Z,16.20
2019-01-26T11:02:10.584Z,19.77
2019-01-26T11:04:39.880Z,15.03
2019-01-26T11:07:17.000Z,14.20
2019-01-26T11:09:48.167Z,12.77
2019-01-26T11:12:17.313Z,13.17
2019-01-26T11:14:46.574Z,13.67
2019-01-26T11:17:16.865Z,12.57
2019-01-26T11:19:46.048Z,13.87
2019-01-26T11:22:14.976Z,12.33
2019-01-26T11:24:44.023Z,12.83
2019-01-26T11:27:13.056Z,12.87
2019-01-26T11:29:42.204Z,12.13
2019-01-26T11:32:12.409Z,12.07
2019-01-26T11:37:24.452Z,11.83
2019-01-26T11:39:58.621Z,12.30
2019-01-26T11:42:27.756Z,10.63
2019-01-26T11:45:09.614Z,10.00
2019-01-26T11:47:38.576Z,8.83
2019-01-26T11:50:08.484Z,9.50
2019-01-26T11:52:38.546Z,8.90
2019-01-26T11:55:13.863Z,9.07
2019-01-26T11:57:42.910Z,9.23
2019-01-26T12:00:23.884Z,9.70
2019-01-26T12:02:57.325Z,9.17
2019-01-26T12:05:33.471Z,8.67
2019-01-26T12:08:02.472Z,8.87
2019-01-26T12:10:39.035Z,8.70
2019-01-26T12:13:08.088Z,8.80
2019-01-26T12:15:37.771Z,9.70
2019-01-26T12:18:08.299Z,9.03
2019-01-26T12:20:39.378Z,9.07
2019-01-26T12:23:08.433Z,9.00
2019-01-26T12:25:39.480Z,9.40
2019-01-26T12:28:11.013Z,9.13
2019-01-26T12:30:42.141Z,9.53
2019-01-26T12:33:12.745Z,10.50
2019-01-26T12:35:44.268Z,26.33
2019-01-26T12:38:14.061Z,15.07
2019-01-26T12:40:45.225Z,9.10
2019-01-26T12:43:15.018Z,9.10
2019-01-26T12:45:45.471Z,9.40
2019-01-26T12:48:14.905Z,9.10
2019-01-26T12:50:45.667Z,7.93
2019-01-26T12:53:19.331Z,8.03
2019-01-26T12:55:50.141Z,8.33
2019-01-26T12:58:19.402Z,8.40
2019-01-26T13:00:50.964Z,8.60
2019-01-26T13:03:21.353Z,9.67
2019-01-26T13:05:52.747Z,9.57
2019-01-26T13:08:22.118Z,9.90
2019-01-26T13:10:55.631Z,9.43
2019-01-26T13:13:25.130Z,8.27
2019-01-26T13:15:55.003Z,7.93
2019-01-26T13:18:26.707Z,7.67
2019-01-26T13:20:57.131Z,7.43
2019-01-26T13:26:07.397Z,7.17
2019-01-26T13:28:36.403Z,6.37
2019-01-26T13:31:05.816Z,6.23
2019-01-26T13:33:35.237Z,5.50
2019-01-26T13:36:06.924Z,8.70
2019-01-26T13:38:36.519Z,6.57
2019-01-26T13:41:06.244Z,6.40
2019-01-26T13:43:35.797Z,5.93
2019-01-26T13:46:05.632Z,6.47
2019-01-26T13:48:33.895Z,6.43
2019-01-26T13:51:03.533Z,6.63
2019-01-26T13:53:32.827Z,7.10
2019-01-26T13:56:02.821Z,8.50
2019-01-26T13:58:32.999Z,7.67
2019-01-26T14:01:03.893Z,7.97
2019-01-26T14:03:34.583Z,6.97
2019-01-26T14:06:04.023Z,8.20
2019-01-26T14:08:33.466Z,7.10
2019-01-26T14:11:02.642Z,7.17
2019-01-26T14:13:32.581Z,7.97
2019-01-26T14:16:08.105Z,6.90
2019-01-26T14:18:38.222Z,11.43
2019-01-26T14:21:09.085Z,6.83
2019-01-26T14:26:28.151Z,5.70
2019-01-26T14:29:05.467Z,5.63
2019-01-26T14:31:35.769Z,6.70
2019-01-26T14:34:05.295Z,6.13
2019-01-26T14:36:34.760Z,7.53
2019-01-26T14:39:06.672Z,7.60
2019-01-26T14:41:36.025Z,8.07
2019-01-26T14:44:07.215Z,7.43
2019-01-26T14:46:37.955Z,7.90
2019-01-26T14:49:07.673Z,8.23
2019-01-26T14:51:37.227Z,8.10
2019-01-26T14:54:08.510Z,7.63
2019-01-26T14:56:37.849Z,7.67
2019-01-26T14:59:10.309Z,8.30
2019-01-26T15:04:39.756Z,8.77
2019-01-26T15:07:11.091Z,7.73
